createdAt,value
2022-10-04T00:02:34.280Z,97588.19
2022-10-04T00:05:15.073Z,97587.16
2022-10-04T00:07:58.981Z,97590.06
2022-10-04T00:10:34.508Z,97594.53
2022-10-04T00:13:07.740Z,97597.75
2022-10-04T00:15:37.886Z,97601.50
2022-10-04T00:18:10.822Z,97598.53
2022-10-04T00:20:55.695Z,97598.84
2022-10-04T00:23:25.663Z,97610.13
2022-10-04T00:26:06.499Z,97612.25
2022-10-04T00:28:45.916Z,97617.53
2022-10-04T00:31:22.460Z,97597.47
2022-10-04T00:34:03.715Z,97600.06
2022-10-04T00:36:55.152Z,97602.47
2022-10-04T00:39:37.608Z,97601.16
2022-10-04T00:42:33.266Z,97591.41
2022-10-04T00:45:16.046Z,97594.06
2022-10-04T00:47:49.207Z,97589.34
2022-10-04T00:50:44.908Z,97588.53
2022-10-04T00:53:41.775Z,97587.97
2022-10-04T00:56:34.727Z,97593.25
2022-10-04T00:59:46.628Z,97590.38
2022-10-04T01:02:31.614Z,97596.19
2022-10-04T01:05:07.393Z,97577.16
2022-10-04T01:07:47.843Z,97576.09
2022-10-04T01:10:27.199Z,97577.41
2022-10-04T01:13:28.014Z,97573.19
2022-10-04T01:16:18.427Z,97576.28
2022-10-04T01:18:46.685Z,97565.47
2022-10-04T01:21:19.924Z,97562.59
2022-10-04T01:23:57.457Z,97557.06
2022-10-04T01:26:30.459Z,97552.84
2022-10-04T01:29:15.891Z,97550.22
2022-10-04T01:31:52.428Z,97548.66
2022-10-04T01:34:25.684Z,97554.94
2022-10-04T01:36:57.477Z,97545.47
2022-10-04T01:39:26.964Z,97551.53
2022-10-04T01:42:21.105Z,97549.13
2022-10-04T01:45:03.218Z,97545.72
2022-10-04T01:47:55.300Z,97557.34
2022-10-04T01:51:15.292Z,97552.88
2022-10-04T01:53:56.862Z,97545.47
2022-10-04T01:56:34.523Z,97547.38
2022-10-04T01:59:07.791Z,97544.72
2022-10-04T02:01:51.142Z,97542.06
2022-10-04T02:04:41.199Z,97551.84
2022-10-04T02:07:14.964Z,97556.59
2022-10-04T02:09:47.781Z,97559.47
2022-10-04T02:12:19.958Z,97552.66
2022-10-04T02:14:53.315Z,97555.78
2022-10-04T02:17:31.431Z,97553.41
2022-10-04T02:20:01.594Z,97550.00
2022-10-04T02:22:30.005Z,97555.78
2022-10-04T02:24:57.897Z,97545.81
2022-10-04T02:27:31.417Z,97548.13
2022-10-04T02:30:06.302Z,97544.47
2022-10-04T02:32:52.788Z,97550.84
2022-10-04T02:35:21.261Z,97548.19
2022-10-04T02:37:59.133Z,97551.88
2022-10-04T02:40:32.624Z,97551.88
2022-10-04T02:43:08.678Z,97552.16
2022-10-04T02:46:07.428Z,97549.78
2022-10-04T02:48:55.060Z,97551.88
2022-10-04T02:51:37.449Z,97550.28
2022-10-04T02:54:27.745Z,97556.03
2022-10-04T02:56:56.964Z,97552.91
2022-10-04T02:59:25.171Z,97561.66
2022-10-04T03:02:01.890Z,97554.81
2022-10-04T03:04:38.970Z,97555.81
2022-10-04T03:07:09.256Z,97557.16
2022-10-04T03:09:38.296Z,97561.41
2022-10-04T03:12:06.499Z,97552.69
2022-10-04T03:14:34.536Z,97552.16
2022-10-04T03:17:06.305Z,97557.69
2022-10-04T03:19:35.553Z,97545.00
2022-10-04T03:22:12.176Z,97545.53
2022-10-04T03:24:56.174Z,97531.53
2022-10-04T03:27:31.500Z,97548.72
2022-10-04T03:29:59.668Z,97541.84
2022-10-04T03:32:30.603Z,97535.50
2022-10-04T03:35:02.587Z,97541.84
2022-10-04T03:37:35.253Z,97545.25
2022-10-04T03:40:04.168Z,97547.38
2022-10-04T03:42:36.324Z,97548.19
2022-10-04T03:45:18.541Z,97550.84
2022-10-04T03:47:50.575Z,97553.47
2022-10-04T03:50:26.989Z,97559.03
2022-10-04T03:52:59.036Z,97559.28
2022-10-04T03:55:34.785Z,97558.78
2022-10-04T03:58:02.886Z,97555.63
2022-10-04T04:00:30.394Z,97569.09
2022-10-04T04:03:03.007Z,97562.50
2022-10-04T04:05:54.242Z,97565.66
2022-10-04T04:08:33.535Z,97573.31
2022-10-04T04:11:05.945Z,97568.03
2022-10-04T04:14:14.141Z,97564.81
2022-10-04T04:16:41.724Z,97561.94
2022-10-04T04:19:16.727Z,97580.16
2022-10-04T04:21:44.591Z,97577.25
2022-10-04T04:24:32.334Z,97577.78
2022-10-04T04:27:05.421Z,97576.22
2022-10-04T04:29:53.385Z,97576.47
2022-10-04T04:32:25.885Z,97577.25
2022-10-04T04:35:07.249Z,97574.06
2022-10-04T04:37:38.930Z,97577.00
2022-10-04T04:40:25.176Z,97579.66
2022-10-04T04:42:53.280Z,97582.00
2022-10-04T04:45:29.737Z,97577.28
2022-10-04T04:47:58.736Z,97594.13
2022-10-04T04:50:35.025Z,97594.69
2022-10-04T04:53:38.275Z,97598.66
2022-10-04T04:56:10.603Z,97588.34
2022-10-04T04:58:46.692Z,97603.69
2022-10-04T05:01:26.859Z,97604.75
2022-10-04T05:04:23.777Z,97608.41
2022-10-04T05:07:06.616Z,97605.75
2022-10-04T05:09:41.422Z,97618.44
2022-10-04T05:12:21.640Z,97615.81
2022-10-04T05:14:53.126Z,97614.25
2022-10-04T05:17:25.158Z,97618.22
2022-10-04T05:19:57.931Z,97608.13
2022-10-04T05:22:27.042Z,97611.06
2022-10-04T05:25:09.289Z,97620.34
2022-10-04T05:27:40.394Z,97633.03
2022-10-04T05:30:32.432Z,97630.41
2022-10-04T05:33:41.226Z,97639.66
2022-10-04T05:36:11.154Z,97643.44
2022-10-04T05:39:28.327Z,97645.03
2022-10-04T05:42:37.283Z,97650.31
2022-10-04T05:45:25.210Z,97646.59
2022-10-04T05:47:55.955Z,97646.91
2022-10-04T05:50:42.044Z,97649.59
2022-10-04T05:53:42.226Z,97651.19
2022-10-04T05:57:04.138Z,97649.84
2022-10-04T06:00:03.353Z,97663.53
2022-10-04T06:02:51.419Z,97665.63
2022-10-04T06:05:35.000Z,97674.56
2022-10-04T06:08:24.780Z,97669.72
2022-10-04T06:11:33.490Z,97657.59
2022-10-04T06:14:58.654Z,97656.34
2022-10-04T06:17:45.039Z,97668.31
2022-10-04T06:20:35.522Z,97665.97
2022-10-04T06:23:11.961Z,97673.66
2022-10-04T06:26:02.993Z,97678.16
2022-10-04T06:28:35.950Z,97680.53
2022-10-04T06:31:36.130Z,97676.31
2022-10-04T06:35:07.020Z,97676.56
2022-10-04T06:38:00.296Z,97683.44
2022-10-04T06:40:55.104Z,97694.94
2022-10-04T06:43:56.871Z,97700.00
2022-10-04T06:47:04.256Z,97694.69
2022-10-04T06:50:44.135Z,97705.16
2022-10-04T06:53:32.296Z,97701.41
2022-10-04T06:56:49.996Z,97714.88
2022-10-04T06:59:38.078Z,97718.53
2022-10-04T07:02:36.426Z,97727.41
2022-10-04T07:05:33.342Z,97728.31
2022-10-04T07:08:35.649Z,97733.78
2022-10-04T07:11:53.679Z,97736.66
2022-10-04T07:14:37.729Z,97739.16
2022-10-04T07:17:20.033Z,97741.09
2022-10-04T07:19:50.359Z,97734.28
2022-10-04T07:22:38.269Z,97740.16
2022-10-04T07:25:14.864Z,97735.56
2022-10-04T07:28:27.608Z,97737.81
2022-10-04T07:31:13.309Z,97761.06
2022-10-04T07:33:54.203Z,97757.09
2022-10-04T07:36:47.360Z,97764.22
2022-10-04T07:39:17.095Z,97771.66
2022-10-04T07:41:56.404Z,97775.59
2022-10-04T07:44:43.073Z,97759.91
2022-10-04T07:47:23.146Z,97772.53
2022-10-04T07:49:50.651Z,97769.41
2022-10-04T07:52:32.893Z,97769.09
2022-10-04T07:55:13.862Z,97778.78
2022-10-04T07:58:14.973Z,97768.59
2022-10-04T08:01:13.983Z,97760.88
2022-10-04T08:04:30.382Z,97764.03
2022-10-04T08:07:05.513Z,97757.06
2022-10-04T08:10:14.582Z,97761.91
2022-10-04T08:13:00.461Z,97758.72
2022-10-04T08:15:40.999Z,97763.09
2022-10-04T08:18:41.525Z,97753.72
2022-10-04T08:21:16.173Z,97755.94
2022-10-04T08:24:16.785Z,97762.09
2022-10-04T08:27:08.991Z,97770.00
2022-10-04T08:30:12.412Z,97780.41
2022-10-04T08:33:12.330Z,97771.88
2022-10-04T08:35:52.593Z,97782.28
2022-10-04T08:38:59.333Z,97781.56
2022-10-04T08:41:54.174Z,97793.19
2022-10-04T08:45:16.882Z,97807.66
2022-10-04T08:47:49.832Z,97814.50
2022-10-04T08:51:05.643Z,97804.19
2022-10-04T08:54:04.022Z,97803.16
2022-10-04T08:57:06.211Z,97805.16
2022-10-04T08:59:54.714Z,97800.06
2022-10-04T09:02:55.599Z,97796.00
2022-10-04T09:06:13.342Z,97809.19
2022-10-04T09:08:55.489Z,97818.38
2022-10-04T09:11:51.058Z,97827.16
2022-10-04T09:15:05.277Z,97825.81
2022-10-04T09:17:41.146Z,97820.41
2022-10-04T09:21:08.433Z,97830.22
2022-10-04T09:24:12.410Z,97832.56
2022-10-04T09:26:59.466Z,97838.44
2022-10-04T09:29:49.653Z,97843.63
2022-10-04T09:33:01.630Z,97839.66
2022-10-04T09:35:53.877Z,97845.47
2022-10-04T09:38:42.633Z,97839.03
2022-10-04T09:41:47.317Z,97837.63
2022-10-04T09:44:46.638Z,97827.72
2022-10-04T09:47:16.969Z,97816.81
2022-10-04T09:50:24.319Z,97818.63
2022-10-04T09:53:00.520Z,97822.34
2022-10-04T09:56:14.685Z,97815.47
2022-10-04T09:59:22.191Z,97810.84
2022-10-04T10:02:01.105Z,97826.84
2022-10-04T10:05:07.333Z,97842.81
2022-10-04T10:07:43.310Z,97855.16
2022-10-04T10:10:48.367Z,97855.41
2022-10-04T10:13:45.627Z,97856.16
2022-10-04T10:16:40.962Z,97852.03
2022-10-04T10:19:45.945Z,97847.38
2022-10-04T10:23:00.694Z,97845.56
2022-10-04T10:25:55.167Z,97845.69
2022-10-04T10:28:29.184Z,97843.28
2022-10-04T10:31:47.722Z,97866.25
2022-10-04T10:34:36.625Z,97871.13
2022-10-04T10:37:12.466Z,97872.09
2022-10-04T10:40:07.670Z,97880.31
2022-10-04T10:42:51.204Z,97872.69
2022-10-04T10:45:53.271Z,97884.50
2022-10-04T10:49:09.425Z,97867.47
2022-10-04T10:52:17.999Z,97865.84
2022-10-04T10:55:34.702Z,97870.97
2022-10-04T10:58:42.077Z,97876.25
2022-10-04T11:01:53.556Z,97887.28
2022-10-04T11:04:51.538Z,97880.16
2022-10-04T11:08:30.099Z,97873.53
2022-10-04T11:11:15.548Z,97881.69
2022-10-04T11:14:33.313Z,97889.72
2022-10-04T11:17:50.241Z,97881.19
2022-10-04T11:21:13.954Z,97879.53
2022-10-04T11:24:14.236Z,97888.78
2022-10-04T11:27:10.995Z,97883.69
2022-10-04T11:30:13.955Z,97892.16
2022-10-04T11:33:07.983Z,97891.59
2022-10-04T11:35:39.398Z,97888.47
2022-10-04T11:38:48.917Z,97888.38
2022-10-04T11:41:36.219Z,97889.66
2022-10-04T11:44:26.686Z,97888.22
2022-10-04T11:47:16.070Z,97883.69
2022-10-04T11:50:03.195Z,97881.50
2022-10-04T11:53:03.366Z,97878.88
2022-10-04T11:56:04.118Z,97882.38
2022-10-04T11:59:11.475Z,97877.81
2022-10-04T12:01:59.911Z,97871.97
2022-10-04T12:04:58.291Z,97872.47
2022-10-04T12:07:40.177Z,97873.53
2022-10-04T12:10:40.143Z,97871.41
2022-10-04T12:13:58.357Z,97865.22
2022-10-04T12:16:56.732Z,97851.72
2022-10-04T12:19:45.659Z,97861.66
2022-10-04T12:22:33.979Z,97859.31
2022-10-04T12:25:47.041Z,97866.28
2022-10-04T12:28:39.957Z,97858.16
2022-10-04T12:31:28.839Z,97853.47
2022-10-04T12:34:26.541Z,97851.81
2022-10-04T12:37:20.823Z,97854.19
2022-10-04T12:40:21.474Z,97858.03
2022-10-04T12:43:28.245Z,97867.41
2022-10-04T12:46:27.502Z,97864.19
2022-10-04T12:49:06.967Z,97860.88
2022-10-04T12:52:01.270Z,97876.13
2022-10-04T12:54:45.766Z,97873.66
2022-10-04T12:57:47.388Z,97868.75
2022-10-04T13:00:26.074Z,97878.22
2022-10-04T13:03:54.499Z,97883.63
2022-10-04T13:07:05.569Z,97876.75
2022-10-04T13:10:23.460Z,97873.78
2022-10-04T13:13:20.261Z,97879.59
2022-10-04T13:19:50.510Z,97880.66
2022-10-04T13:22:58.065Z,97876.63
2022-10-04T13:26:04.540Z,97875.75
2022-10-04T13:29:13.456Z,97878.47
2022-10-04T13:32:30.262Z,97891.28
2022-10-04T13:35:09.145Z,97892.03
2022-10-04T13:38:20.230Z,97895.47
2022-10-04T13:41:22.441Z,97902.47
2022-10-04T13:44:08.170Z,97890.38
2022-10-04T13:47:10.256Z,97892.09
2022-10-04T13:50:23.102Z,97895.84
2022-10-04T13:53:51.825Z,97902.88
2022-10-04T13:56:43.820Z,97901.56
2022-10-04T13:59:52.464Z,97900.16
2022-10-04T14:03:02.935Z,97905.03
2022-10-04T14:06:03.940Z,97904.44
2022-10-04T14:09:07.795Z,97903.63
2022-10-04T14:12:13.645Z,97909.69
2022-10-04T14:15:12.224Z,97900.44
2022-10-04T14:18:10.551Z,97903.41
2022-10-04T14:20:59.840Z,97906.97
2022-10-04T14:23:44.600Z,97910.22
2022-10-04T14:26:51.299Z,97910.22
2022-10-04T14:30:08.254Z,97916.09
2022-10-04T14:33:12.615Z,97910.59
2022-10-04T14:35:44.556Z,97927.13
2022-10-04T14:38:48.206Z,97915.06
2022-10-04T14:41:45.276Z,97915.63
2022-10-04T14:44:56.405Z,97914.66
2022-10-04T14:48:12.513Z,97910.94
2022-10-04T14:51:30.032Z,97910.19
2022-10-04T14:54:26.300Z,97912.81
2022-10-04T14:56:59.330Z,97907.66
2022-10-04T14:59:51.001Z,97910.81
2022-10-04T15:02:31.316Z,97915.94
2022-10-04T15:05:19.435Z,97918.47
2022-10-04T15:07:56.142Z,97915.59
2022-10-04T15:10:37.194Z,97912.19
2022-10-04T15:13:47.172Z,97921.41
2022-10-04T15:16:29.181Z,97924.50
2022-10-04T15:19:19.726Z,97926.31
2022-10-04T15:21:50.521Z,97935.81
2022-10-04T15:24:25.675Z,97929.88
2022-10-04T15:27:35.560Z,97930.00
2022-10-04T15:30:10.653Z,97929.00
2022-10-04T15:32:55.330Z,97937.84
2022-10-04T15:36:02.417Z,97940.56
2022-10-04T15:38:53.830Z,97940.09
2022-10-04T15:41:48.979Z,97939.06
2022-10-04T15:45:18.923Z,97945.13
2022-10-04T15:48:21.698Z,97945.41
2022-10-04T15:51:25.669Z,97946.19
2022-10-04T15:54:13.605Z,97956.22
2022-10-04T15:56:40.733Z,97950.59
2022-10-04T15:59:42.246Z,97950.03
2022-10-04T16:02:32.000Z,97951.28
2022-10-04T16:05:29.688Z,97948.84
2022-10-04T16:08:36.346Z,97960.41
2022-10-04T16:11:50.930Z,97959.28
2022-10-04T16:15:14.118Z,97952.50
2022-10-04T16:18:25.266Z,97959.06
2022-10-04T16:20:55.560Z,97959.81
2022-10-04T16:23:35.671Z,97958.78
2022-10-04T16:26:17.036Z,97964.31
2022-10-04T16:28:47.041Z,97959.25
2022-10-04T16:31:21.606Z,97965.03
2022-10-04T16:34:28.216Z,97963.44
2022-10-04T16:36:59.819Z,97971.47
2022-10-04T16:40:00.290Z,97968.75
2022-10-04T16:43:04.719Z,97979.03
2022-10-04T16:46:07.128Z,97970.84
2022-10-04T16:49:02.373Z,97986.38
2022-10-04T16:52:19.278Z,97986.63
2022-10-04T16:54:59.757Z,97984.22
2022-10-04T16:57:27.993Z,97993.13
2022-10-04T16:59:57.601Z,97997.56
2022-10-04T17:03:10.375Z,97999.97
2022-10-04T17:06:25.648Z,97997.88
2022-10-04T17:09:18.972Z,98001.00
2022-10-04T17:12:25.679Z,98001.03
2022-10-04T17:15:14.405Z,97999.25
2022-10-04T17:18:13.207Z,97997.19
2022-10-04T17:20:43.464Z,98001.38
2022-10-04T17:23:44.485Z,98004.19
2022-10-04T17:26:47.274Z,98005.97
2022-10-04T17:29:29.250Z,98000.88
2022-10-04T17:32:17.478Z,98005.06
2022-10-04T17:34:57.500Z,98012.19
2022-10-04T17:37:47.197Z,98008.69
2022-10-04T17:40:17.189Z,98010.22
2022-10-04T17:43:25.557Z,98008.81
2022-10-04T17:46:24.048Z,98010.59
2022-10-04T17:49:30.517Z,98014.56
2022-10-04T17:52:24.416Z,98014.34
2022-10-04T17:55:16.220Z,98026.50
2022-10-04T17:58:11.440Z,98023.31
2022-10-04T18:01:26.683Z,98020.91
2022-10-04T18:04:12.312Z,98030.81
2022-10-04T18:06:51.275Z,98037.34
2022-10-04T18:09:43.504Z,98043.91
2022-10-04T18:12:46.989Z,98043.91
2022-10-04T18:16:01.680Z,98051.44
2022-10-04T18:18:38.367Z,98048.72
2022-10-04T18:21:20.319Z,98052.50
2022-10-04T18:23:57.247Z,98046.91
2022-10-04T18:26:32.401Z,98053.44
2022-10-04T18:29:01.809Z,98053.94
2022-10-04T18:31:41.513Z,98058.06
2022-10-04T18:34:30.402Z,98059.00
2022-10-04T18:37:20.332Z,98054.09
2022-10-04T18:39:53.223Z,98056.66
2022-10-04T18:42:37.531Z,98053.72
2022-10-04T18:45:30.259Z,98056.81
2022-10-04T18:48:02.101Z,98054.66
2022-10-04T18:50:43.683Z,98058.47
2022-10-04T18:53:36.049Z,98065.09
2022-10-04T18:56:10.052Z,98072.66
2022-10-04T18:59:32.539Z,98073.59
2022-10-04T19:02:34.904Z,98076.25
2022-10-04T19:05:28.927Z,98079.00
2022-10-04T19:08:00.434Z,98081.53
2022-10-04T19:10:39.118Z,98085.00
2022-10-04T19:13:29.270Z,98083.94
2022-10-04T19:16:45.778Z,98088.88
2022-10-04T19:19:40.874Z,98083.06
2022-10-04T19:22:43.427Z,98087.56
2022-10-04T19:25:24.229Z,98088.00
2022-10-04T19:28:20.878Z,98092.25
2022-10-04T19:31:29.299Z,98092.13
2022-10-04T19:34:18.143Z,98091.69
2022-10-04T19:37:09.310Z,98098.88
2022-10-04T19:39:58.285Z,98097.16
2022-10-04T19:43:18.964Z,98106.78
2022-10-04T19:46:11.746Z,98099.44
2022-10-04T19:48:51.057Z,98107.25
2022-10-04T19:51:51.098Z,98104.13
2022-10-04T19:54:39.674Z,98109.50
2022-10-04T19:57:15.018Z,98110.09
2022-10-04T19:59:45.981Z,98113.91
2022-10-04T20:02:17.478Z,98115.63
2022-10-04T20:04:48.946Z,98119.50
2022-10-04T20:07:28.428Z,98123.75
2022-10-04T20:10:25.701Z,98123.06
2022-10-04T20:13:13.587Z,98128.66
2022-10-04T20:15:42.986Z,98128.34
2022-10-04T20:18:32.089Z,98129.00
2022-10-04T20:21:00.239Z,98127.63
2022-10-04T20:23:39.436Z,98132.91
2022-10-04T20:26:55.504Z,98130.59
2022-10-04T20:29:38.193Z,98135.41
2022-10-04T20:32:08.568Z,98132.19
2022-10-04T20:34:38.969Z,98134.59
2022-10-04T20:37:10.982Z,98142.72
2022-10-04T20:39:42.007Z,98137.72
2022-10-04T20:42:19.794Z,98140.78
2022-10-04T20:45:22.197Z,98149.22
2022-10-04T20:47:57.531Z,98157.34
2022-10-04T20:50:42.271Z,98155.41
2022-10-04T20:53:23.064Z,98159.97
2022-10-04T20:55:57.258Z,98158.25
2022-10-04T20:58:35.613Z,98155.72
2022-10-04T21:01:26.783Z,98152.53
2022-10-04T21:03:54.262Z,98159.81
2022-10-04T21:06:21.523Z,98158.22
2022-10-04T21:08:48.807Z,98158.22
2022-10-04T21:11:22.264Z,98150.00
2022-10-04T21:13:56.506Z,98150.69
2022-10-04T21:16:46.031Z,98149.66
2022-10-04T21:19:44.661Z,98144.91
2022-10-04T21:22:35.918Z,98146.91
2022-10-04T21:25:31.585Z,98149.16
2022-10-04T21:28:32.596Z,98160.91
2022-10-04T21:31:00.532Z,98164.22
2022-10-04T21:33:27.857Z,98159.06
2022-10-04T21:35:55.220Z,98163.06
2022-10-04T21:38:22.528Z,98157.47
2022-10-04T21:40:49.763Z,98160.66
2022-10-04T21:43:16.986Z,98162.25
2022-10-04T21:45:44.378Z,98163.72
2022-10-04T21:48:11.632Z,98166.13
2022-10-04T21:50:38.941Z,98162.94
2022-10-04T21:53:06.200Z,98170.09
2022-10-04T21:55:33.426Z,98174.34
2022-10-04T21:58:00.740Z,98173.09
2022-10-04T22:00:27.953Z,98172.63
2022-10-04T22:02:55.261Z,98175.47
2022-10-04T22:05:22.500Z,98172.72
2022-10-04T22:07:49.926Z,98174.44
2022-10-04T22:10:17.845Z,98161.84
2022-10-04T22:12:45.202Z,98164.84
2022-10-04T22:15:12.563Z,98155.63
2022-10-04T22:17:39.858Z,98168.97
2022-10-04T22:20:07.584Z,98166.00
2022-10-04T22:22:39.624Z,98165.09
2022-10-04T22:25:20.858Z,98151.94
2022-10-04T22:27:48.659Z,98155.78
2022-10-04T22:30:31.342Z,98158.72
2022-10-04T22:33:00.770Z,98145.44
2022-10-04T22:35:31.876Z,98145.53
2022-10-04T22:38:00.300Z,98147.91
2022-10-04T22:40:29.191Z,98147.91
2022-10-04T22:43:00.928Z,98145.66
2022-10-04T22:45:33.463Z,98139.59
2022-10-04T22:48:07.927Z,98151.13
2022-10-04T22:50:37.380Z,98139.19
2022-10-04T22:53:14.293Z,98147.84
2022-10-04T22:55:41.896Z,98132.78
2022-10-04T22:58:14.567Z,98144.09
2022-10-04T23:00:44.029Z,98148.53
2022-10-04T23:03:31.966Z,98141.69
2022-10-04T23:06:00.836Z,98148.06
2022-10-04T23:08:29.420Z,98141.38
2022-10-04T23:11:00.774Z,98140.22
2022-10-04T23:13:29.163Z,98142.38
2022-10-04T23:16:01.966Z,98148.31
2022-10-04T23:18:30.981Z,98140.88
2022-10-04T23:21:01.165Z,98149.69
2022-10-04T23:23:30.710Z,98141.69
2022-10-04T23:25:57.920Z,98144.09
2022-10-04T23:28:26.902Z,98146.84
2022-10-04T23:31:25.864Z,98144.88
2022-10-04T23:33:56.870Z,98148.75
2022-10-04T23:36:24.522Z,98150.50
2022-10-04T23:38:59.079Z,98148.06
2022-10-04T23:41:27.045Z,98153.91
2022-10-04T23:43:54.217Z,98151.72
2022-10-04T23:46:24.441Z,98156.13
2022-10-04T23:48:51.781Z,98163.47
2022-10-04T23:51:20.123Z,98166.91
2022-10-04T23:53:49.854Z,98166.56
2022-10-04T23:56:29.366Z,98169.53
2022-10-04T23:58:58.875Z,98166.69
